Terminal Aerodrome Forecast
Issued by NWS Wilmington, OH

Current Version | Previous Version | Graphics & Text | Print | Product List | Glossary On
Versions: 1 2 3 4 5 6 7 8 9 10 11 12 13 14 15 16 17 18 19
040
FTUS41 KILN 261130
TAFDAY
TAF
KDAY 261130Z 2612/2712 21006KT P6SM -SHRA BKN035 BKN050 OVC090
      TEMPO 2613/2617 5SM SHRA OVC025
     FM261700 18012KT P6SM -SHRA VCTS OVC035CB
      TEMPO 2618/2622 3SM SHRA OVC025
     FM262200 20008KT P6SM VCSH BKN050
     FM270500 23006KT P6SM BKN070
     FM271000 VRB03KT P6SM BKN035=

USA.gov is the U.S. government's official web portal to all federal, state and local government web resources and services.